Meteo Giornale » Osservazioni meteo Italia » Firenze-Peretola

ore: 12:50 - Osservazioni Meteo Firenze-Peretola
Lat. 43° 48' N Lon. 11° 12' E Alt. 40 metri s.l.m.

nuvoloso Europe/Rome

32 °C

Nuvoloso

Temp. 24 Ore

25 °C

35 °C

Nord

7.4 Km/h

Dew point 14 °C

Umidità 33 %

Visibilità  10 Km

Il sole sorge alle ore 06:10

Il sole tramonta alle ore 20:31

Data e Ora Cielo e Fenomeni T °C DP °C Um. % Pres. hPa Vis. km Vento km/h
Oggi h: 12:50 nuvoloso Nuvoloso 32 14 33 1014 10 N 7.4
Oggi h: 12:20 poco_nuvoloso Poco Nuvoloso 30 16 42 1014 10 N 5.5
Oggi h: 11:50 nuvoloso_temporali Temporale nelle Vicinanze 29 17 48 1014 10 N 11.1
Oggi h: 11:20 coperto_temporali Temporale Rovescio nelle Vicinanze 27 19 61 1014 10 N 7.4
Oggi h: 10:50 coperto_temporali Temporale Rovescio nelle Vicinanze 28 19 58 1014 10 E/NE 9.3
Oggi h: 10:20 nuvoloso Nuvoloso 27 19 61 1014 10 N 3.7
Oggi h: 09:50 nuvoloso_temporali Temporale con Pioggia Debole 26 19 65 1014 10 N 5.5
Oggi h: 09:20 nuvoloso_piovaschi Rovescio di Pioggia 26 20 69 1015 10 SE 11.1
Oggi h: 08:50 nuvoloso Nuvoloso 30 16 42 1015 10 N 5.5
Oggi h: 08:20 nuvoloso Nuvoloso 28 17 51 1015 10 N/NE 14.8
Oggi h: 07:50 nuvoloso Nuvoloso 27 17 54 1015 10 N 16.7
Oggi h: 07:20 nuvoloso Nuvoloso 26 17 57 1015 10 O 14.8
Oggi h: 06:50 poco_nuvoloso Poco Nuvoloso 25 16 57 1014 10 SO 7.4
Oggi h: 06:20 sereno Sereno 25 17 61 1013 10 S 7.4
Oggi h: 05:50 sereno Sereno 26 16 54 1013 10 N 5.5
Oggi h: 05:20 sereno Sereno 27 16 50 1013 10 N 7.4
Oggi h: 04:50 sereno Sereno 26 16 54 1013 10 N 7.4
Oggi h: 04:20 sereno Sereno 27 16 50 1013 10 N 14.8
Oggi h: 03:50 sereno Sereno 27 16 50 1013 10 N 11.1
Oggi h: 03:20 sereno Sereno 26 16 54 1013 10 N 11.1
Oggi h: 02:20 sereno Sereno 26 17 57 1013 10 N 5.5
Oggi h: 01:50 sereno Sereno 26 17 57 1013 10 O/SO 9.3
Oggi h: 01:20 sereno Sereno 26 17 57 1013 10 N 5.5
Oggi h: 00:50 sereno Sereno 25 16 57 1013 10 N 5.5
Oggi h: 00:20 sereno Sereno 26 17 57 1014 10 N 1.8
Ieri h: 23:50 sereno Sereno 27 17 54 1013 10 S 9.3
Ieri h: 23:20 sereno Sereno 27 17 54 1013 10 S 7.4
Ieri h: 22:50 sereno Sereno 27 17 54 1013 10 N 5.5
Ieri h: 22:20 sereno Sereno 27 17 54 1013 10 N 5.5
Ieri h: 21:50 sereno Sereno 28 17 51 1013 10 N/NO 7.4
Ieri h: 21:20 sereno Sereno 28 17 51 1012 10 N 1.8
Ieri h: 20:50 sereno Sereno 29 17 48 1012 10 N 1.8
Ieri h: 20:20 sereno Sereno 30 17 45 1011 10 N 5.5
Ieri h: 19:50 sereno Sereno 31 17 43 1011 10 NE 14.8
Ieri h: 19:20 poco_nuvoloso Poco Nuvoloso 31 18 45 1011 10 E/NE 25.9
Ieri h: 18:50 poco_nuvoloso Poco Nuvoloso 32 18 43 1011 10 E/NE 18.5
Ieri h: 18:20 molto_nuvoloso Molto Nuvoloso 31 17 43 1012 10 NE 18.5
Ieri h: 17:50 nuvoloso Nuvoloso 31 17 43 1013 10 E 16.7
Ieri h: 17:20 nuvoloso Nuvoloso 32 17 40 1013 10 E 24
Ieri h: 16:50 molto_nuvoloso Molto Nuvoloso 31 17 43 1011 10 E/NE 14.8
Ieri h: 16:20 nuvoloso Nuvoloso 32 17 40 1012 10 E/NE 18.5
Ieri h: 15:50 nuvoloso Nuvoloso 33 17 38 1012 10 E/NE 24
Ieri h: 15:20 nuvoloso_temporali Temporale nelle Vicinanze 34 17 36 1011 10 NE 27.8
Ieri h: 14:50 nuvoloso_temporali Temporale nelle Vicinanze 35 18 36 1011 10 N/NE 25.9
Ieri h: 14:20 poco_nuvoloso Poco Nuvoloso 34 18 38 1012 10 N/NE 29.6
Ieri h: 13:50 poco_nuvoloso Poco Nuvoloso 34 18 38 1012 10 NE 27.8